Time;durP1;ratioP1;P1;durP2;ratioP2;P2;SDS_P1;SDS_P2;PMS_P1;PMS_P2;Temp;Humidity;BMP_temperature;BMP_pressure;BME280_temperature;BME280_humidity;BME280_pressure;Samples;Min_cycle;Max_cycle;Signal;HPM_P1;HPM_P2
2022/05/14 04:01:37;;;;;;;4.00;2.10;;;7.00;96.30;;;;;;5392691;23;20485;-71
2022/05/14 04:04:03;;;;;;;3.63;1.77;;;7.30;96.30;;;;;;4974699;28;20414;-74
2022/05/14 04:06:29;;;;;;;3.60;1.60;;;8.00;96.30;;;;;;4974497;28;20182;-73
2022/05/14 04:08:55;;;;;;;3.00;1.50;;;8.60;96.30;;;;;;4974011;28;20405;-73
2022/05/14 04:11:21;;;;;;;1.87;1.70;;;9.00;96.30;;;;;;4974340;28;20565;-71
2022/05/14 04:13:46;;;;;;;14.67;1.67;;;9.30;96.30;;;;;;4974405;28;20653;-71
2022/05/14 04:16:12;;;;;;;3.07;1.57;;;9.80;96.30;;;;;;4956884;28;20217;-71
2022/05/14 04:18:38;;;;;;;1.80;1.37;;;9.70;96.30;;;;;;4974380;28;20170;-71
2022/05/14 04:21:03;;;;;;;3.53;1.40;;;10.10;96.30;;;;;;4975238;28;20190;-71
2022/05/14 04:23:30;;;;;;;7.27;2.20;;;10.30;96.30;;;;;;4975937;28;20418;-72
2022/05/14 04:25:57;;;;;;;4.27;1.90;;;10.30;96.30;;;;;;4976749;28;20237;-71
2022/05/14 04:28:27;;;;;;;3.20;1.67;;;10.10;96.30;;;;;;4975385;28;20415;-71
2022/05/14 04:30:53;;;;;;;4.17;1.60;;;10.30;96.30;;;;;;4974813;28;20777;-72
2022/05/14 04:33:19;;;;;;;2.93;1.70;;;10.60;96.30;;;;;;4974099;28;20424;-72
2022/05/14 04:35:45;;;;;;;6.97;1.57;;;11.30;96.30;;;;;;4973869;28;20452;-72
2022/05/14 04:38:11;;;;;;;4.57;1.57;;;12.00;96.30;;;;;;4973325;28;20405;-73
2022/05/14 04:40:37;;;;;;;3.13;1.83;;;12.50;96.30;;;;;;4973792;28;20432;-72
2022/05/14 04:43:07;;;;;;;2.60;1.40;;;13.40;96.30;;;;;;4973844;28;20420;-72
2022/05/14 04:45:33;;;;;;;2.60;1.40;;;14.10;96.30;;;;;;4973924;28;20414;-72
2022/05/14 04:47:58;;;;;;;3.97;1.40;;;14.50;96.30;;;;;;4973211;28;21013;-73
2022/05/14 04:50:24;;;;;;;2.03;1.40;;;15.30;92.20;;;;;;4973710;28;20662;-72
2022/05/14 04:52:50;;;;;;;2.63;1.80;;;15.70;91.60;;;;;;4973868;28;20174;-72
2022/05/14 04:55:15;;;;;;;4.37;1.67;;;16.10;89.50;;;;;;4973660;28;20242;-72
2022/05/14 04:57:43;;;;;;;4.27;1.93;;;16.10;89.40;;;;;;4973202;28;20206;-72
2022/05/14 05:00:10;;;;;;;2.17;1.70;;;16.30;90.00;;;;;;4973132;28;20170;-74
2022/05/14 05:05:20;;;;;;;3.20;1.40;;;16.10;92.20;;;;;;4979389;28;20401;-75
2022/05/14 05:07:47;;;;;;;1.57;1.17;;;16.50;89.30;;;;;;4978275;28;20504;-75
2022/05/14 05:10:13;;;;;;;1.93;1.30;;;17.20;86.90;;;;;;4979457;28;20162;-75
2022/05/14 05:12:38;;;;;;;1.73;1.13;;;17.30;86.20;;;;;;4978531;28;20417;-75
2022/05/14 05:15:04;;;;;;;2.67;1.37;;;17.30;86.20;;;;;;4978172;28;20194;-77
2022/05/14 05:17:30;;;;;;;2.73;1.33;;;15.90;91.90;;;;;;4977092;28;20273;-75
2022/05/14 05:19:55;;;;;;;6.47;1.60;;;16.30;91.10;;;;;;4976629;28;20194;-75
2022/05/14 05:22:21;;;;;;;6.13;1.47;;;17.00;90.70;;;;;;4977173;28;20201;-76
2022/05/14 05:24:47;;;;;;;2.10;1.20;;;17.30;88.70;;;;;;4977494;28;20277;-75
2022/05/14 05:27:12;;;;;;;4.40;1.63;;;17.90;87.90;;;;;;4975640;28;20189;-75
2022/05/14 05:29:38;;;;;;;6.63;1.67;;;18.20;87.10;;;;;;4977675;28;20265;-77
2022/05/14 05:32:04;;;;;;;7.50;1.30;;;18.80;84.80;;;;;;4964796;28;20202;-76
2022/05/14 05:34:29;;;;;;;2.10;1.87;;;19.30;83.00;;;;;;4985950;28;20186;-76
2022/05/14 05:36:55;;;;;;;4.70;1.43;;;19.00;83.40;;;;;;4985201;28;20704;-75
2022/05/14 05:39:21;;;;;;;4.80;1.60;;;19.80;83.20;;;;;;4965151;28;20178;-75
2022/05/14 05:41:46;;;;;;;5.03;1.47;;;20.40;82.00;;;;;;4964557;28;20197;-74
2022/05/14 05:44:12;;;;;;;3.80;1.40;;;20.00;82.60;;;;;;4980760;28;20451;-74
2022/05/14 05:46:38;;;;;;;4.50;1.50;;;20.50;80.40;;;;;;4979164;28;20227;-74
2022/05/14 05:49:05;;;;;;;4.13;1.70;;;20.30;80.80;;;;;;4978676;28;20668;-75
2022/05/14 05:51:31;;;;;;;5.87;1.70;;;20.50;80.70;;;;;;4978849;28;20201;-75
2022/05/14 05:56:47;;;;;;;4.83;1.40;;;21.40;78.60;;;;;;4978925;28;20479;-75
2022/05/14 05:59:17;;;;;;;3.30;1.40;;;22.40;75.80;;;;;;4978457;28;20421;-76
2022/05/14 06:01:43;;;;;;;3.10;1.60;;;21.60;78.00;;;;;;4972146;28;20507;-76
2022/05/14 06:04:09;;;;;;;3.67;1.40;;;22.00;75.60;;;;;;4979048;28;20446;-76
2022/05/14 06:06:34;;;;;;;5.00;1.53;;;20.70;78.00;;;;;;4979220;28;20424;-75
2022/05/14 06:09:00;;;;;;;5.70;2.37;;;20.60;79.00;;;;;;4979198;28;20180;-75
2022/05/14 06:11:26;;;;;;;5.33;1.60;;;20.80;80.60;;;;;;4979019;28;20197;-76
2022/05/14 06:13:52;;;;;;;4.47;1.43;;;20.50;80.20;;;;;;4979187;28;20269;-75
2022/05/14 06:16:18;;;;;;;3.37;1.53;;;19.80;81.70;;;;;;4979253;28;20209;-77
2022/05/14 06:18:44;;;;;;;3.90;1.60;;;21.20;82.30;;;;;;4975069;28;20424;-76
2022/05/14 06:21:12;;;;;;;2.70;1.60;;;22.00;78.80;;;;;;4967833;28;20238;-76
2022/05/14 06:23:38;;;;;;;3.37;1.63;;;22.90;78.20;;;;;;4959098;28;20433;-76
2022/05/14 06:26:03;;;;;;;7.30;1.53;;;23.40;76.50;;;;;;4958887;28;20917;-77
2022/05/14 06:28:29;;;;;;;4.00;1.60;;;23.30;73.90;;;;;;4959143;29;20182;-76
2022/05/14 06:30:58;;;;;;;2.93;1.37;;;23.70;76.10;;;;;;4968205;28;20297;-77
2022/05/14 06:33:26;;;;;;;3.53;1.60;;;24.20;74.90;;;;;;4968376;28;20189;-76
2022/05/14 06:35:51;;;;;;;3.03;1.80;;;24.00;74.40;;;;;;4964956;28;20540;-76
2022/05/14 06:38:17;;;;;;;3.20;1.87;;;23.40;74.40;;;;;;4959100;29;20449;-76
2022/05/14 06:40:44;;;;;;;5.73;1.30;;;23.70;75.00;;;;;;4959467;29;20625;-76
2022/05/14 06:43:09;;;;;;;4.10;1.90;;;23.50;72.90;;;;;;4959708;29;20185;-76
2022/05/14 06:45:35;;;;;;;4.73;1.73;;;22.70;73.40;;;;;;4959989;28;20406;-76
2022/05/14 06:48:01;;;;;;;3.30;1.50;;;22.80;78.50;;;;;;4959007;29;20244;-75
2022/05/14 06:50:31;;;;;;;5.13;1.87;;;22.90;75.40;;;;;;4959106;29;20221;-76
2022/05/14 06:52:59;;;;;;;5.37;1.70;;;23.20;76.30;;;;;;4942448;29;20185;-75
2022/05/14 06:55:28;;;;;;;4.43;1.70;;;24.10;75.50;;;;;;4957326;28;20454;-75
2022/05/14 06:57:54;;;;;;;6.10;1.30;;;24.60;74.60;;;;;;4956050;29;20469;-76
2022/05/14 07:00:20;;;;;;;6.13;1.90;;;24.30;73.60;;;;;;4956525;28;20827;-76
2022/05/14 07:02:47;;;;;;;5.53;1.77;;;23.20;75.30;;;;;;4956810;29;20395;-76
2022/05/14 07:07:57;;;;;;;4.33;1.67;;;23.40;75.50;;;;;;4956291;29;21077;-76
2022/05/14 07:10:22;;;;;;;3.57;2.00;;;24.30;74.40;;;;;;4956453;29;20457;-76
2022/05/14 07:12:49;;;;;;;4.00;1.80;;;25.00;70.70;;;;;;4956407;29;20269;-75
2022/05/14 07:15:15;;;;;;;5.30;1.60;;;24.10;72.90;;;;;;4956451;29;20198;-76
2022/05/14 07:17:41;;;;;;;4.97;1.70;;;24.20;74.20;;;;;;4955699;29;20410;-76
2022/05/14 07:20:07;;;;;;;4.67;1.80;;;25.50;72.70;;;;;;4956115;29;20461;-76
2022/05/14 07:22:33;;;;;;;4.70;1.70;;;25.80;69.70;;;;;;4955800;29;20205;-76
2022/05/14 07:24:58;;;;;;;4.80;1.70;;;25.20;71.50;;;;;;4956233;29;20429;-76
2022/05/14 07:27:24;;;;;;;5.13;1.80;;;25.20;71.50;;;;;;4956029;29;20183;-77
2022/05/14 07:29:50;;;;;;;6.60;2.57;;;25.20;72.50;;;;;;4955685;29;20607;-76
2022/05/14 07:32:18;;;;;;;3.87;1.80;;;25.20;69.80;;;;;;4956038;29;20297;-77
2022/05/14 07:34:44;;;;;;;2.80;1.40;;;24.30;73.10;;;;;;4955963;29;20418;-77
2022/05/14 07:37:29;;;;;;;6.10;1.90;;;24.50;73.60;;;;;;4956999;28;20422;-77
2022/05/14 07:39:59;;;;;;;4.40;2.00;;;25.40;73.40;;;;;;4960972;28;20170;-77
2022/05/14 07:42:41;;;;;;;6.13;2.13;;;25.30;71.70;;;;;;4965237;28;20445;-77
2022/05/14 07:45:10;;;;;;;6.77;2.20;;;24.60;71.80;;;;;;4965585;28;20448;-77
2022/05/14 07:47:38;;;;;;;3.93;1.77;;;24.20;72.70;;;;;;4957108;28;20422;-76
2022/05/14 07:50:05;;;;;;;6.83;1.67;;;23.70;73.30;;;;;;4960337;28;20776;-77
2022/05/14 07:52:31;;;;;;;10.73;2.30;;;23.70;77.30;;;;;;4955492;29;20521;-76
2022/05/14 07:54:56;;;;;;;3.20;2.07;;;23.60;78.70;;;;;;4962946;28;20634;-76
2022/05/14 07:57:22;;;;;;;8.00;2.40;;;24.30;76.60;;;;;;4972658;28;20200;-76
2022/05/14 07:59:47;;;;;;;5.63;2.90;;;23.90;76.10;;;;;;4959008;28;20672;-76
2022/05/14 08:02:31;;;;;;;4.90;2.30;;;23.70;76.00;;;;;;4952301;28;20210;-76
2022/05/14 08:05:04;;;;;;;6.93;2.60;;;24.80;72.40;;;;;;4957723;28;20712;-77
2022/05/14 08:07:31;;;;;;;7.00;2.40;;;25.00;73.40;;;;;;4937512;29;20779;-75
2022/05/14 08:09:56;;;;;;;4.03;2.10;;;24.50;72.50;;;;;;4955350;29;20413;-76
2022/05/14 08:12:22;;;;;;;6.17;2.43;;;24.40;75.20;;;;;;4954946;29;20429;-75
2022/05/14 08:14:48;;;;;;;6.07;2.20;;;;;;;;;;4955121;29;20210;-76
2022/05/14 08:17:13;;;;;;;10.33;3.40;;;23.40;74.90;;;;;;4955484;28;20182;-77
2022/05/14 08:19:39;;;;;;;4.33;2.57;;;23.00;75.80;;;;;;4965578;28;20232;-76
2022/05/14 08:24:50;;;;;;;9.33;2.80;;;23.10;78.80;;;;;;4974676;28;20209;-76
2022/05/14 08:27:17;;;;;;;11.97;3.20;;;23.20;79.10;;;;;;4974155;28;20462;-76
2022/05/14 08:29:45;;;;;;;19.83;3.10;;;23.40;77.70;;;;;;4973539;28;20193;-76
2022/05/14 08:32:11;;;;;;;7.67;2.90;;;24.00;76.00;;;;;;4966330;28;20532;-76
2022/05/14 08:34:36;;;;;;;7.97;3.60;;;24.00;77.60;;;;;;4954602;29;20573;-77
2022/05/14 08:37:02;;;;;;;15.47;3.53;;;23.40;77.40;;;;;;4954817;29;20179;-76
2022/05/14 08:39:28;;;;;;;7.23;2.93;;;23.20;79.00;;;;;;4954343;29;20186;-76
2022/05/14 08:41:55;;;;;;;6.40;2.80;;;24.20;73.50;;;;;;4954517;29;20190;-76
2022/05/14 08:44:30;;;;;;;9.73;3.40;;;23.40;75.30;;;;;;4954544;29;20953;-76
2022/05/14 08:46:59;;;;;;;6.80;3.37;;;22.60;80.00;;;;;;4954690;29;20402;-76
2022/05/14 08:49:33;;;;;;;7.80;3.07;;;23.00;81.80;;;;;;4954024;29;20497;-76
2022/05/14 08:51:59;;;;;;;5.37;3.57;;;;;;;;;;4954610;29;21021;-76
2022/05/14 08:54:26;;;;;;;12.50;4.53;;;22.80;78.20;;;;;;4953238;28;20809;-76
2022/05/14 08:57:07;;;;;;;10.80;3.63;;;22.80;80.00;;;;;;4954228;29;20464;-76
2022/05/14 08:59:52;;;;;;;10.63;4.03;;;22.90;75.50;;;;;;4954013;29;20414;-76
2022/05/14 09:02:33;;;;;;;12.53;4.00;;;22.10;82.40;;;;;;4954202;28;20533;-76
2022/05/14 09:05:13;;;;;;;7.60;3.90;;;22.00;81.50;;;;;;4954222;29;20411;-76
2022/05/14 09:07:39;;;;;;;7.40;3.83;;;21.70;81.00;;;;;;4959262;28;20422;-76
2022/05/14 09:10:08;;;;;;;11.67;3.83;;;21.80;80.00;;;;;;4964091;28;20429;-76
2022/05/14 09:12:36;;;;;;;9.10;3.13;;;22.10;81.60;;;;;;4962247;28;20200;-76
2022/05/14 09:15:13;;;;;;;8.67;3.90;;;22.10;79.20;;;;;;4961909;28;20469;-76
2022/05/14 09:17:39;;;;;;;8.20;2.90;;;22.20;81.30;;;;;;4960291;28;20406;-76
2022/05/14 09:20:05;;;;;;;9.27;3.30;;;22.50;79.60;;;;;;4969628;28;20432;-76
2022/05/14 09:22:43;;;;;;;5.70;2.93;;;22.00;82.00;;;;;;4959024;28;20269;-76
2022/05/14 09:25:20;;;;;;;9.17;2.77;;;22.30;82.50;;;;;;4963974;28;20422;-76
2022/05/14 09:27:46;;;;;;;5.87;2.97;;;;;;;;;;4962593;28;20429;-76
2022/05/14 09:30:22;;;;;;;7.20;2.63;;;22.60;76.90;;;;;;4964401;28;20422;-76
2022/05/14 09:32:49;;;;;;;7.63;2.63;;;;;;;;;;4961695;28;20178;-76
2022/05/14 09:35:23;;;;;;;13.70;3.37;;;22.60;81.00;;;;;;4964312;28;20553;-76
2022/05/14 09:37:49;;;;;;;5.30;2.80;;;;;;;;;;4961719;28;20473;-76
2022/05/14 09:40:22;;;;;;;9.80;3.37;;;23.30;79.80;;;;;;4961487;28;20411;-76
2022/05/14 09:42:55;;;;;;;6.63;3.00;;;22.30;77.20;;;;;;4962037;28;20183;-76
2022/05/14 09:45:25;;;;;;;11.00;3.13;;;21.90;83.20;;;;;;4962744;28;20414;-76
2022/05/14 09:47:51;;;;;;;10.03;2.67;;;22.10;80.30;;;;;;4961685;28;20792;-76
2022/05/14 09:50:28;;;;;;;9.03;3.73;;;22.30;78.50;;;;;;4962819;28;20944;-76
2022/05/14 09:52:57;;;;;;;8.60;3.10;;;22.70;81.80;;;;;;4964258;28;20232;-76
2022/05/14 09:55:42;;;;;;;7.40;3.20;;;23.40;81.00;;;;;;4961416;28;21036;-76
2022/05/14 09:58:38;;;;;;;6.20;3.07;;;23.00;80.20;;;;;;4938656;28;20417;-76
2022/05/14 10:01:33;;;;;;;9.73;2.70;;;23.20;77.80;;;;;;4967721;28;20454;-75
2022/05/14 10:04:41;;;;;;;7.87;3.43;;;23.00;80.00;;;;;;4973027;28;20925;-76
2022/05/14 10:07:17;;;;;;;7.30;2.80;;;23.10;82.80;;;;;;4972942;28;20418;-76
2022/05/14 10:09:58;;;;;;;10.50;3.13;;;22.70;79.80;;;;;;4972479;28;20955;-75
2022/05/14 10:12:38;;;;;;;9.20;3.50;;;23.00;81.70;;;;;;4972931;28;20557;-76
2022/05/14 10:15:41;;;;;;;7.43;3.23;;;22.90;77.60;;;;;;4969544;28;20462;-76
2022/05/14 10:18:09;;;;;;;8.93;3.10;;;;;;;;;;4961363;28;20474;-76
2022/05/14 10:21:04;;;;;;;7.83;2.60;;;22.00;77.70;;;;;;4961632;28;20937;-76
2022/05/14 10:26:50;;;;;;;10.47;3.37;;;21.00;81.30;;;;;;4953465;28;20488;-75
2022/05/14 10:29:21;;;;;;;5.80;3.17;;;20.70;82.50;;;;;;4954042;28;20394;-76
2022/05/14 10:32:11;;;;;;;6.43;3.23;;;20.90;82.10;;;;;;4959546;28;20767;-76
2022/05/14 10:34:58;;;;;;;11.10;2.90;;;21.60;82.30;;;;;;4957503;29;20417;-76
2022/05/14 10:37:43;;;;;;;3.83;3.03;;;22.20;82.50;;;;;;4942813;28;20426;-75
2022/05/14 10:40:24;;;;;;;5.43;2.97;;;22.70;77.70;;;;;;4970625;28;20425;-76
2022/05/14 10:42:52;;;;;;;6.80;2.83;;;23.00;81.60;;;;;;4971448;28;20421;-75
2022/05/14 10:45:22;;;;;;;13.40;2.80;;;23.10;78.10;;;;;;4982341;28;20409;-76
2022/05/14 10:48:06;;;;;;;9.30;2.77;;;22.50;78.20;;;;;;4975067;28;20464;-76
2022/05/14 11:27:15;;;;;;;;;;;;;;;;;;;;;
2022/05/14 11:30:13;;;;;;;8.17;2.23;;;24.30;77.60;;;;;;4909933;29;20834;-75
2022/05/14 11:32:45;;;;;;;6.53;2.20;;;24.30;77.50;;;;;;4908610;29;20436;-76
2022/05/14 11:35:11;;;;;;;7.33;2.00;;;24.30;75.80;;;;;;4950675;29;20462;-76
2022/05/14 11:37:43;;;;;;;9.90;2.70;;;24.30;73.40;;;;;;4950947;29;20406;-75
2022/05/14 11:40:20;;;;;;;6.23;1.90;;;24.00;75.50;;;;;;4926985;28;20923;-75
2022/05/14 11:42:49;;;;;;;7.17;2.17;;;23.80;73.10;;;;;;4955093;29;20406;-76
2022/05/14 11:45:20;;;;;;;3.70;1.77;;;23.60;74.30;;;;;;4940552;29;20434;-75
2022/05/14 11:48:07;;;;;;;5.20;2.30;;;22.90;72.40;;;;;;4936508;29;20426;-75
2022/05/14 11:50:40;;;;;;;6.70;2.17;;;22.80;73.90;;;;;;4941641;29;20434;-76
2022/05/14 11:53:19;;;;;;;4.40;1.60;;;22.30;76.20;;;;;;4937517;29;20423;-76
2022/05/14 11:55:51;;;;;;;6.67;1.90;;;21.70;77.30;;;;;;4936283;29;20451;-75
2022/05/14 11:58:36;;;;;;;8.47;1.80;;;21.80;78.50;;;;;;4941725;29;20633;-75
2022/05/14 12:01:13;;;;;;;5.47;1.80;;;22.20;76.90;;;;;;4944820;29;20439;-75
2022/05/14 12:03:44;;;;;;;4.33;1.70;;;22.40;76.70;;;;;;4943892;29;21043;-76
2022/05/14 12:06:25;;;;;;;7.50;1.80;;;22.60;76.30;;;;;;4927396;29;20428;-74
2022/05/14 12:09:08;;;;;;;3.90;1.80;;;22.40;78.30;;;;;;4949767;29;20457;-75
2022/05/14 12:11:48;;;;;;;4.93;1.80;;;22.60;79.90;;;;;;4952097;29;20432;-75
2022/05/14 12:14:19;;;;;;;4.57;1.40;;;23.30;80.00;;;;;;4938680;29;20419;-75
2022/05/14 12:16:50;;;;;;;10.30;2.20;;;23.30;75.10;;;;;;4947335;29;20458;-75
2022/05/14 12:19:19;;;;;;;3.10;1.90;;;23.20;75.60;;;;;;4940930;29;21156;-76
2022/05/14 12:21:52;;;;;;;6.57;1.97;;;23.40;76.70;;;;;;4935979;29;20586;-75
2022/05/14 12:24:30;;;;;;;6.23;1.87;;;23.00;78.10;;;;;;4936201;29;20470;-75
2022/05/14 12:26:56;;;;;;;9.40;2.17;;;22.90;75.80;;;;;;4919109;29;20419;-75
2022/05/14 12:29:31;;;;;;;4.53;1.93;;;22.30;76.70;;;;;;4935768;29;20456;-75
2022/05/14 12:34:50;;;;;;;5.10;1.80;;;22.40;79.90;;;;;;4935646;29;20482;-75
2022/05/14 12:37:38;;;;;;;6.43;1.97;;;22.80;76.80;;;;;;4935871;29;20411;-75
2022/05/14 12:40:04;;;;;;;4.80;2.00;;;23.50;78.60;;;;;;4918170;29;20651;-75
2022/05/14 12:42:36;;;;;;;4.33;1.87;;;23.40;77.30;;;;;;4919116;29;21087;-77
2022/05/14 12:45:03;;;;;;;5.17;2.20;;;24.00;77.40;;;;;;4936119;29;20412;-75
2022/05/14 12:47:30;;;;;;;4.30;1.43;;;24.00;72.90;;;;;;4935415;29;20420;-76
2022/05/14 12:49:57;;;;;;;5.70;1.90;;;23.60;79.00;;;;;;4935867;29;20446;-77
2022/05/14 12:52:28;;;;;;;5.83;1.50;;;23.70;72.10;;;;;;4935543;29;20431;-76
2022/05/14 12:55:01;;;;;;;3.87;1.50;;;23.60;76.80;;;;;;4935819;29;20795;-76
2022/05/14 12:57:27;;;;;;;4.90;1.40;;;23.80;73.50;;;;;;4935127;29;20483;-75
2022/05/14 12:59:54;;;;;;;5.13;1.40;;;24.30;74.20;;;;;;4935522;29;20403;-77
2022/05/14 13:02:28;;;;;;;3.73;1.63;;;23.70;71.60;;;;;;4935553;29;20429;-76
2022/05/14 13:05:00;;;;;;;7.33;1.83;;;23.90;73.80;;;;;;4935141;29;21003;-75
2022/05/14 13:07:26;;;;;;;4.50;1.70;;;23.90;75.70;;;;;;4935099;29;20442;-76
2022/05/14 13:09:53;;;;;;;7.83;2.23;;;23.70;74.80;;;;;;4935596;29;20499;-77
2022/05/14 13:12:26;;;;;;;4.20;1.70;;;24.10;74.20;;;;;;4935356;29;20441;-76
2022/05/14 13:14:58;;;;;;;6.80;1.87;;;24.10;75.00;;;;;;4918238;29;20430;-77
2022/05/14 13:17:35;;;;;;;8.47;1.83;;;24.00;72.40;;;;;;4935099;29;20430;-74
2022/05/14 13:20:15;;;;;;;12.00;1.50;;;23.90;74.90;;;;;;4935361;29;20555;-76
2022/05/14 13:22:43;;;;;;;9.90;1.37;;;23.60;73.40;;;;;;4934890;29;20427;-77
2022/05/14 13:25:27;;;;;;;5.53;1.90;;;23.70;73.30;;;;;;4918280;29;20419;-77
2022/05/14 13:27:52;;;;;;;3.73;1.43;;;23.20;71.90;;;;;;4935041;29;20986;-75
2022/05/14 13:30:29;;;;;;;3.47;1.63;;;22.90;72.20;;;;;;4936840;29;20513;-78
2022/05/14 13:33:24;;;;;;;7.20;1.40;;;23.30;73.90;;;;;;4934856;29;20225;-75
2022/05/14 13:38:39;;;;;;;5.80;1.60;;;23.40;70.50;;;;;;4915806;29;20792;-78
2022/05/14 13:41:36;;;;;;;2.67;1.40;;;23.50;72.90;;;;;;4898867;29;20552;-77
2022/05/14 13:44:04;;;;;;;5.23;1.50;;;23.60;73.80;;;;;;4909020;29;20416;-78
2022/05/14 13:46:43;;;;;;;3.43;1.90;;;23.70;74.30;;;;;;4915914;29;20916;-77
2022/05/14 13:49:20;;;;;;;4.80;1.50;;;23.80;69.50;;;;;;4915721;29;20548;-77
2022/05/14 13:51:51;;;;;;;3.53;1.50;;;23.70;71.30;;;;;;4920427;29;20973;-77
2022/05/14 13:54:32;;;;;;;2.50;1.67;;;23.60;74.00;;;;;;4935563;29;20837;-74
2022/05/14 13:57:23;;;;;;;7.43;2.50;;;23.00;75.30;;;;;;4934366;29;20794;-75
2022/05/14 13:59:50;;;;;;;6.43;1.83;;;23.00;75.40;;;;;;4933597;29;20498;-74
2022/05/14 14:02:16;;;;;;;8.50;1.53;;;;;;;;;;4934749;29;20423;-76
2022/05/14 14:04:42;;;;;;;9.07;2.57;;;22.90;77.50;;;;;;4936459;29;20942;-74
2022/05/14 14:07:10;;;;;;;6.07;2.17;;;22.30;79.50;;;;;;4938528;29;20211;-74
2022/05/14 14:09:38;;;;;;;4.53;1.77;;;22.20;82.70;;;;;;4938276;29;20434;-77
2022/05/14 14:12:04;;;;;;;7.07;2.03;;;22.20;81.60;;;;;;4938313;29;20430;-74
2022/05/14 14:14:29;;;;;;;7.67;2.27;;;22.20;78.90;;;;;;4938424;29;20422;-74
2022/05/14 14:16:55;;;;;;;8.97;2.33;;;21.80;79.20;;;;;;4938372;29;20982;-74
2022/05/14 14:19:21;;;;;;;6.53;2.17;;;21.30;79.60;;;;;;4938221;29;20171;-74
2022/05/14 14:21:47;;;;;;;6.13;1.90;;;21.20;81.50;;;;;;4938315;29;20246;-75
2022/05/14 14:24:15;;;;;;;6.67;2.10;;;21.50;81.40;;;;;;4938412;29;20176;-76
2022/05/14 14:26:43;;;;;;;10.33;1.80;;;21.70;81.40;;;;;;4938252;29;20677;-74
2022/05/14 14:29:09;;;;;;;8.90;1.80;;;21.80;79.20;;;;;;4938076;29;20455;-74
2022/05/14 14:31:35;;;;;;;5.47;2.43;;;21.70;80.30;;;;;;4938023;29;20455;-77
2022/05/14 14:34:00;;;;;;;5.23;1.63;;;21.80;78.20;;;;;;4938112;29;20254;-74
2022/05/14 14:36:26;;;;;;;10.97;2.70;;;21.70;79.90;;;;;;4937997;29;20195;-74
2022/05/14 14:38:51;;;;;;;4.07;1.87;;;21.90;79.70;;;;;;4937843;29;20544;-74
2022/05/14 14:41:18;;;;;;;10.60;1.70;;;22.20;78.70;;;;;;4937827;29;20195;-74
2022/05/14 14:43:43;;;;;;;6.97;2.03;;;22.40;80.00;;;;;;4937959;29;20210;-74
2022/05/14 14:46:10;;;;;;;6.07;1.50;;;22.70;77.60;;;;;;4920797;29;20459;-77
2022/05/14 14:48:37;;;;;;;3.67;1.50;;;22.70;77.00;;;;;;4937574;29;20198;-74
2022/05/14 14:51:07;;;;;;;6.03;2.00;;;22.30;75.30;;;;;;4937634;29;20438;-74
2022/05/14 14:53:34;;;;;;;7.53;1.73;;;21.80;78.00;;;;;;4937791;29;20887;-74
2022/05/14 14:56:00;;;;;;;3.90;1.77;;;21.90;77.40;;;;;;4937616;29;20509;-74
2022/05/14 14:58:26;;;;;;;5.67;2.00;;;21.90;76.50;;;;;;4937467;29;20498;-74
2022/05/14 15:00:52;;;;;;;5.17;1.80;;;21.90;77.70;;;;;;4937516;29;20188;-74
2022/05/14 15:03:21;;;;;;;3.90;2.00;;;22.00;79.30;;;;;;4937642;29;20408;-74
2022/05/14 15:05:49;;;;;;;6.20;1.80;;;21.70;76.80;;;;;;4937569;29;20179;-74
2022/05/14 15:08:19;;;;;;;4.80;1.80;;;21.50;78.20;;;;;;4937307;29;20494;-74
2022/05/14 15:10:45;;;;;;;5.63;1.80;;;21.50;81.50;;;;;;4937399;29;20483;-74
2022/05/14 15:13:14;;;;;;;5.20;1.77;;;21.50;76.30;;;;;;4937461;29;20816;-74
2022/05/14 15:15:40;;;;;;;5.90;2.20;;;20.80;78.20;;;;;;4936111;29;20191;-76
2022/05/14 15:18:07;;;;;;;6.50;1.80;;;20.70;78.60;;;;;;4937284;29;20419;-77
2022/05/14 15:20:32;;;;;;;8.27;2.30;;;20.80;79.50;;;;;;4937471;29;20471;-76
2022/05/14 15:22:59;;;;;;;7.47;2.10;;;21.10;81.60;;;;;;4937442;29;20465;-76
2022/05/14 15:25:25;;;;;;;6.00;1.57;;;21.00;79.20;;;;;;4937371;29;20624;-76
2022/05/14 15:27:50;;;;;;;6.33;1.73;;;21.30;80.00;;;;;;4936989;29;20187;-76
2022/05/14 15:30:16;;;;;;;11.37;2.07;;;21.40;77.00;;;;;;4937196;29;20183;-76
2022/05/14 15:32:42;;;;;;;8.87;3.13;;;21.20;78.00;;;;;;4937144;29;20203;-76
2022/05/14 15:35:08;;;;;;;6.10;1.73;;;21.10;76.60;;;;;;4937019;29;20574;-76
2022/05/14 15:37:34;;;;;;;6.20;1.83;;;21.10;78.20;;;;;;4936846;29;20960;-76
2022/05/14 15:40:00;;;;;;;7.40;2.23;;;21.20;80.70;;;;;;4936936;29;20503;-77
2022/05/14 15:42:48;;;;;;;14.80;2.40;;;21.40;78.50;;;;;;4936862;29;20212;-76
2022/05/14 15:45:24;;;;;;;4.27;1.50;;;21.30;75.80;;;;;;4937029;29;20639;-76
2022/05/14 15:47:50;;;;;;;11.43;1.80;;;21.10;75.90;;;;;;4936594;29;20419;-76
2022/05/14 15:50:18;;;;;;;6.27;1.77;;;21.00;77.50;;;;;;4919609;29;20442;-76
2022/05/14 15:52:45;;;;;;;7.77;2.60;;;21.00;77.80;;;;;;4936725;29;20982;-76
2022/05/14 15:55:17;;;;;;;9.27;1.80;;;20.60;75.70;;;;;;4919688;29;20491;-76
2022/05/14 15:57:43;;;;;;;6.93;1.83;;;20.40;78.80;;;;;;4919535;29;20423;-76
2022/05/14 16:00:11;;;;;;;3.17;1.50;;;20.60;81.60;;;;;;4936725;29;20418;-76
2022/05/14 16:02:38;;;;;;;2.80;1.53;;;20.70;79.30;;;;;;4919362;29;20200;-77
2022/05/14 16:05:05;;;;;;;6.70;2.20;;;20.80;78.60;;;;;;4936672;29;20495;-76
2022/05/14 16:07:30;;;;;;;4.57;1.60;;;20.70;78.30;;;;;;4936124;29;20427;-77
2022/05/14 16:18:08;;;;;;;10.77;1.83;;;20.40;78.20;;;;;;4936305;29;20415;-77
2022/05/14 16:20:34;;;;;;;5.60;2.10;;;20.20;79.50;;;;;;4919358;29;20445;-76
2022/05/14 16:22:59;;;;;;;7.30;2.20;;;20.10;80.60;;;;;;4936231;29;20490;-76
2022/05/14 16:25:25;;;;;;;7.07;1.87;;;19.90;80.30;;;;;;4936276;29;20176;-77
2022/05/14 16:27:51;;;;;;;9.07;1.97;;;19.90;81.30;;;;;;4935587;29;20188;-75
2022/05/14 16:30:19;;;;;;;3.03;1.40;;;20.10;82.40;;;;;;4936085;29;20180;-77
2022/05/14 16:32:44;;;;;;;4.20;1.73;;;20.20;81.70;;;;;;4918834;29;21029;-76
2022/05/14 16:35:10;;;;;;;5.43;1.90;;;20.20;81.20;;;;;;4935990;29;20458;-77
2022/05/14 16:37:35;;;;;;;6.43;2.10;;;20.10;80.40;;;;;;4936378;29;20587;-76
2022/05/14 16:40:03;;;;;;;6.57;1.83;;;20.30;80.90;;;;;;4936130;29;20179;-76
2022/05/14 17:13:36;;;;;;;11.00;2.20;;;18.70;86.90;;;;;;5031613;23;20988;-76
2022/05/14 17:16:01;;;;;;;9.27;2.40;;;18.60;87.10;;;;;;4973802;28;20454;-76
2022/05/14 17:18:27;;;;;;;5.47;1.60;;;18.60;87.40;;;;;;4973563;28;20421;-76
2022/05/14 17:20:53;;;;;;;4.13;1.93;;;18.50;89.00;;;;;;4973821;28;20190;-75
2022/05/14 17:23:19;;;;;;;7.53;2.27;;;18.50;89.40;;;;;;4956396;28;20189;-76
2022/05/14 17:25:44;;;;;;;5.13;1.70;;;18.50;88.10;;;;;;4973695;28;20520;-76
2022/05/14 17:28:10;;;;;;;7.83;1.70;;;18.40;87.10;;;;;;4973622;28;20237;-76
2022/05/14 17:30:36;;;;;;;4.77;1.77;;;18.30;85.50;;;;;;4973652;28;20251;-76
2022/05/14 17:33:04;;;;;;;7.43;2.17;;;18.30;85.60;;;;;;4973669;28;20973;-76
2022/05/14 17:35:30;;;;;;;3.97;2.00;;;18.20;86.40;;;;;;4973741;28;20245;-76
2022/05/14 17:40:40;;;;;;;6.63;2.10;;;17.70;87.00;;;;;;4973428;28;20488;-76
2022/05/14 17:43:06;;;;;;;5.67;1.60;;;17.60;90.00;;;;;;4973640;28;20821;-77
2022/05/14 17:45:32;;;;;;;7.43;2.03;;;17.50;89.50;;;;;;4974115;28;20221;-76
2022/05/14 17:47:57;;;;;;;5.47;1.80;;;17.40;89.30;;;;;;4974261;28;20178;-76
2022/05/14 17:50:27;;;;;;;4.50;1.93;;;17.20;88.90;;;;;;4956480;28;20417;-76
2022/05/14 17:52:53;;;;;;;6.70;2.10;;;17.20;89.40;;;;;;4973550;28;20672;-77
2022/05/14 17:55:19;;;;;;;6.00;2.53;;;17.00;89.50;;;;;;4973764;28;20489;-77
2022/05/14 17:57:47;;;;;;;3.93;1.40;;;16.90;90.70;;;;;;4974037;28;20993;-76
2022/05/14 18:00:18;;;;;;;4.77;2.00;;;16.80;90.80;;;;;;4973429;28;20413;-76
2022/05/14 18:02:43;;;;;;;6.57;1.97;;;16.70;90.70;;;;;;4956242;28;20421;-77
2022/05/14 18:05:11;;;;;;;10.47;2.03;;;16.70;91.00;;;;;;4973688;28;20414;-76
2022/05/14 18:07:38;;;;;;;8.07;1.77;;;16.60;91.80;;;;;;4973834;28;20185;-77
2022/05/14 18:10:06;;;;;;;5.13;1.93;;;16.50;91.30;;;;;;4956426;28;20429;-77
2022/05/14 18:12:32;;;;;;;3.80;1.77;;;16.50;91.40;;;;;;4956147;28;20472;-76
2022/05/14 18:14:58;;;;;;;5.03;2.20;;;16.30;92.70;;;;;;4973506;28;20414;-76
2022/05/14 18:17:24;;;;;;;9.00;2.07;;;16.10;93.60;;;;;;4973678;28;20177;-76
2022/05/14 18:19:50;;;;;;;5.00;1.80;;;15.80;94.20;;;;;;4956020;28;20424;-76
2022/05/14 18:22:16;;;;;;;5.33;1.50;;;15.50;96.20;;;;;;4973790;28;20468;-77
2022/05/14 18:24:41;;;;;;;5.90;1.67;;;15.10;96.30;;;;;;4956411;28;20841;-78
2022/05/14 18:27:16;;;;;;;6.60;2.00;;;14.80;96.30;;;;;;4956346;28;20605;-76
2022/05/14 18:29:56;;;;;;;5.13;2.07;;;14.30;96.30;;;;;;4956149;28;20737;-77
2022/05/14 18:32:28;;;;;;;7.60;1.70;;;14.10;96.30;;;;;;4973595;28;20437;-77
2022/05/14 18:34:54;;;;;;;2.37;1.73;;;14.00;96.30;;;;;;4956196;28;20421;-77
2022/05/14 18:37:21;;;;;;;5.60;1.60;;;13.80;96.30;;;;;;4973647;28;20512;-78
2022/05/14 18:39:56;;;;;;;3.57;1.63;;;13.50;96.30;;;;;;4956003;28;20426;-76
2022/05/14 18:42:22;;;;;;;5.10;1.93;;;13.20;96.30;;;;;;4973429;28;20429;-77